Opmeer, Netherlands
Current Conditions -  °F | °C
As of 2:58 AM on Tuesday 21 Oct 2014 (Local Time) from EHKD Reporting Station
Broken Clouds Broken Clouds  
Wind Chill: 57°   Ceiling: 6600
Heat Index: 57°   Visibility: 6mi
Dew Point: 52°   Wind: 16mph
Humidity: 82%   Direction: 250°WSW
Pressure: 29.77"   Gusts: NA
Location:  52.71°N, 4.94°E
Report Text: EHKD 210058Z AUTO 25014KT 9999 FEW018 SCT023 BKN066 14/11 Q1008 WHT
Loading
Personal Weather Stations






























Interactive Weather Map
Tropical Storm Tracking
New forecast layout! Learn more

10-Day Weather Forecast

Advertisements
Track Severe Weather on mobile